Time;durP1;ratioP1;P1;durP2;ratioP2;P2;SDS_P1;SDS_P2;PMS_P1;PMS_P2;Temp;Humidity;BMP_temperature;BMP_pressure;BME280_temperature;BME280_humidity;BME280_pressure;Samples;Min_cycle;Max_cycle;Signal;HPM_P1;HPM_P2
2022/12/11 00:03:43;;;;;;;104.00;46.20;;;;;;;-1.86;100.00;100996.31;10282425;28;20407;-77
2022/12/11 00:08:44;;;;;;;90.22;46.45;;;;;;;-1.80;100.00;100990.88;10266011;28;20094;-77
2022/12/11 00:13:44;;;;;;;97.18;48.80;;;;;;;-1.85;100.00;100987.84;10282766;28;20126;-77
2022/12/11 00:18:45;;;;;;;98.30;47.50;;;;;;;-1.83;100.00;100981.22;10283495;28;20042;-77
2022/12/11 00:23:45;;;;;;;101.78;47.75;;;;;;;-1.79;100.00;100979.88;10256987;28;20669;-77
2022/12/11 00:28:46;;;;;;;99.15;47.38;;;;;;;-1.87;100.00;100975.63;10282609;28;20051;-77
2022/12/11 00:33:50;;;;;;;101.88;47.47;;;;;;;-1.89;100.00;100989.97;10283796;28;20064;-77
2022/12/11 00:38:50;;;;;;;88.07;44.58;;;;;;;-1.87;100.00;100984.22;10251975;28;20038;-77
2022/12/11 00:43:51;;;;;;;91.22;49.47;;;;;;;-1.85;100.00;100979.25;10236498;28;20043;-77
2022/12/11 00:48:52;;;;;;;77.68;43.05;;;;;;;-1.80;100.00;100967.78;10280991;28;20377;-77
2022/12/11 00:53:52;;;;;;;86.63;44.60;;;;;;;-1.78;100.00;100968.84;10271417;28;20483;-77
2022/12/11 00:58:53;;;;;;;96.63;46.45;;;;;;;-1.77;100.00;100963.84;10281222;28;20043;-77
2022/12/11 01:03:54;;;;;;;93.43;43.67;;;;;;;-1.74;100.00;100967.47;10274913;28;20480;-77
2022/12/11 01:14:13;;;;;;;84.85;43.22;;;;;;;-1.74;100.00;100973.53;10282785;28;20047;-77
2022/12/11 01:19:14;;;;;;;86.28;45.72;;;;;;;-1.74;100.00;100981.22;10241952;28;20118;-77
2022/12/11 01:24:14;;;;;;;77.20;42.65;;;;;;;-1.77;100.00;100983.50;10252676;28;20053;-77
2022/12/11 01:29:15;;;;;;;92.45;47.75;;;;;;;-1.71;100.00;100984.09;10276770;28;20525;-77
2022/12/11 01:34:15;;;;;;;99.03;45.58;;;;;;;-1.68;100.00;100983.47;10274356;28;20053;-77
2022/12/11 01:39:16;;;;;;;79.95;41.17;;;;;;;-1.70;100.00;100985.91;10279576;28;20085;-77
2022/12/11 01:44:16;;;;;;;84.70;44.25;;;;;;;-1.71;100.00;100978.97;10278702;28;20058;-77
2022/12/11 01:49:17;;;;;;;80.45;42.58;;;;;;;-1.70;100.00;100965.38;10280268;28;20039;-76
2022/12/11 01:54:18;;;;;;;80.05;41.03;;;;;;;-1.69;100.00;100968.84;10276547;28;20391;-76
2022/12/11 01:59:21;;;;;;;85.50;45.55;;;;;;;-1.68;100.00;100969.00;10263183;28;20042;-77
2022/12/11 02:04:22;;;;;;;74.22;37.67;;;;;;;-1.69;100.00;100968.84;10255439;28;20558;-77
2022/12/11 02:09:26;;;;;;;67.78;35.35;;;;;;;-1.61;100.00;100965.34;10222533;28;20122;-77
2022/12/11 02:14:38;;;;;;;88.80;41.88;;;;;;;-1.65;100.00;100956.47;10278121;28;20035;-76
2022/12/11 02:19:48;;;;;;;71.93;36.58;;;;;;;-1.66;100.00;100957.22;10281683;28;20126;-76
2022/12/11 02:25:20;;;;;;;86.55;40.60;;;;;;;-1.60;100.00;100951.75;10298302;28;20122;-77
2022/12/11 02:30:21;;;;;;;64.32;34.88;;;;;;;-1.63;100.00;100949.81;10241133;28;20524;-77
2022/12/11 02:35:23;;;;;;;58.70;35.40;;;;;;;-1.66;100.00;100941.81;10260411;28;20134;-77
2022/12/11 02:40:25;;;;;;;72.80;36.17;;;;;;;-1.63;100.00;100936.06;10278636;28;20483;-76
2022/12/11 02:45:26;;;;;;;71.38;38.13;;;;;;;-1.61;100.00;100946.50;10263374;28;20129;-77
2022/12/11 02:50:26;;;;;;;73.35;37.00;;;;;;;-1.63;100.00;100941.19;10245178;28;20558;-77
2022/12/11 02:55:27;;;;;;;66.22;37.42;;;;;;;-1.58;100.00;100942.56;10261391;28;20043;-77
2022/12/11 03:00:27;;;;;;;69.47;36.85;;;;;;;-1.59;100.00;100932.16;10239122;28;20541;-77
2022/12/11 03:05:28;;;;;;;61.97;33.53;;;;;;;-1.61;100.00;100936.22;10278004;28;20042;-77
2022/12/11 03:10:28;;;;;;;75.88;37.03;;;;;;;-1.63;100.00;100941.19;10276484;28;20149;-77
2022/12/11 03:15:52;;;;;;;71.95;35.33;;;;;;;-1.63;100.00;100936.06;10278201;28;20067;-77
2022/12/11 03:21:06;;;;;;;63.15;30.83;;;;;;;-1.60;100.00;100931.22;10278141;28;20392;-77
2022/12/11 03:26:12;;;;;;;64.22;35.50;;;;;;;-1.57;100.00;100928.06;10267877;28;20054;-77
2022/12/11 03:31:30;;;;;;;74.13;39.85;;;;;;;-1.64;100.00;100924.00;10307940;28;20058;-77
2022/12/11 03:36:32;;;;;;;66.65;32.92;;;;;;;-1.60;100.00;100925.22;10307645;28;20049;-77
2022/12/11 03:41:33;;;;;;;;;;;;;;;-1.57;100.00;100922.94;10282077;28;20039;-76
2022/12/11 03:46:35;;;;;;;53.47;29.60;;;;;;;-1.58;100.00;100921.13;10285288;28;19918;-77
2022/12/11 03:51:36;;;;;;;60.42;30.42;;;;;;;-1.52;100.00;100916.59;10268035;28;20509;-77
2022/12/11 03:56:36;;;;;;;52.38;30.17;;;;;;;-1.54;100.00;100911.28;10282830;28;20035;-77
2022/12/11 04:01:37;;;;;;;71.97;27.92;;;;;;;-1.49;100.00;100912.63;10281641;28;20490;-76
2022/12/11 04:06:37;;;;;;;51.70;29.25;;;;;;;-1.49;100.00;100904.94;10284737;28;20118;-77
2022/12/11 04:11:38;;;;;;;52.63;28.17;;;;;;;-1.53;100.00;100896.81;10282535;28;20046;-77
2022/12/11 04:16:38;;;;;;;59.42;28.35;;;;;;;-1.55;100.00;100904.34;10284176;28;20034;-77
2022/12/11 04:26:58;;;;;;;43.95;26.23;;;;;;;-1.54;100.00;100897.56;10284645;28;20058;-78
2022/12/11 04:31:58;;;;;;;60.28;30.67;;;;;;;-1.48;100.00;100905.84;10281112;28;20114;-77
2022/12/11 04:36:59;;;;;;;50.10;26.45;;;;;;;-1.45;100.00;100903.59;10283418;28;20161;-78
2022/12/11 04:41:59;;;;;;;57.35;25.33;;;;;;;-1.52;100.00;100896.94;10281922;28;20138;-77
2022/12/11 04:47:00;;;;;;;47.95;26.08;;;;;;;-1.52;100.00;100907.22;10283953;28;20109;-77
2022/12/11 04:52:00;;;;;;;45.95;23.65;;;;;;;-1.49;100.00;100904.03;10281907;28;20129;-78
2022/12/11 04:57:01;;;;;;;47.78;28.48;;;;;;;-1.48;100.00;100908.44;10259896;28;20043;-78
2022/12/11 05:02:02;;;;;;;48.03;25.50;;;;;;;-1.50;100.00;100895.44;10248466;28;20125;-77
2022/12/11 05:07:03;;;;;;;42.40;25.02;;;;;;;-1.46;100.00;100886.38;10280816;28;20039;-77
2022/12/11 05:12:03;;;;;;;42.25;22.40;;;;;;;-1.38;100.00;100874.25;10273206;28;20039;-77
2022/12/11 05:17:04;;;;;;;41.60;22.80;;;;;;;-1.44;100.00;100878.78;10253016;28;20042;-77
2022/12/11 05:22:04;;;;;;;37.58;24.70;;;;;;;-1.46;100.00;100872.63;10282403;28;20387;-77
2022/12/11 05:27:05;;;;;;;42.55;24.10;;;;;;;-1.39;100.00;100865.66;10279623;28;20041;-77
2022/12/11 05:32:05;;;;;;;37.22;21.17;;;;;;;-1.46;100.00;100857.22;10280487;28;20041;-78
2022/12/11 05:37:06;;;;;;;40.15;24.52;;;;;;;-1.47;100.00;100866.59;10313028;28;20445;-78
2022/12/11 05:42:07;;;;;;;37.50;20.20;;;;;;;-1.49;100.00;100858.72;10280233;28;20081;-77
2022/12/11 05:47:07;;;;;;;35.40;19.98;;;;;;;-1.45;100.00;100861.59;10275861;28;20035;-78
2022/12/11 05:52:08;;;;;;;34.47;19.10;;;;;;;-1.48;100.00;100875.94;10277522;28;20035;-77
2022/12/11 05:57:08;;;;;;;38.60;20.70;;;;;;;-1.47;100.00;100874.28;10279764;28;20395;-77
2022/12/11 06:02:09;;;;;;;38.58;22.25;;;;;;;-1.52;100.00;100870.38;10278610;28;20442;-77
2022/12/11 06:07:09;;;;;;;34.17;18.30;;;;;;;-1.43;100.00;100854.94;10277094;28;20715;-77
2022/12/11 06:12:10;;;;;;;30.33;20.20;;;;;;;-1.41;100.00;100866.25;10279594;28;20038;-77
2022/12/11 06:17:10;;;;;;;32.67;21.08;;;;;;;-1.49;100.00;100865.53;10270338;28;20043;-77
2022/12/11 06:22:11;;;;;;;29.42;18.80;;;;;;;-1.53;100.00;100850.59;10276063;28;20130;-77
2022/12/11 06:27:12;;;;;;;26.55;19.60;;;;;;;-1.55;100.00;100854.69;10255750;28;20051;-77
2022/12/11 06:32:12;;;;;;;34.13;18.30;;;;;;;-1.59;100.00;100856.03;10266001;28;20411;-76
2022/12/11 06:37:13;;;;;;;34.15;17.40;;;;;;;-1.59;100.00;100855.16;10239538;28;20042;-76
2022/12/11 06:42:15;;;;;;;30.75;20.40;;;;;;;-1.57;100.00;100862.22;10274624;28;20101;-77
2022/12/11 06:47:15;;;;;;;;;;;;;;;-1.59;100.00;100857.72;10278886;28;20053;-77
2022/12/11 06:52:16;;;;;;;34.70;18.75;;;;;;;-1.51;100.00;100849.97;10266550;28;20382;-78
2022/12/11 06:57:17;;;;;;;32.15;17.50;;;;;;;-1.58;100.00;100852.72;10239890;28;20143;-77
2022/12/11 07:02:18;;;;;;;34.83;20.17;;;;;;;-1.59;100.00;100850.91;10246390;28;20046;-77
2022/12/11 07:07:18;;;;;;;25.60;17.00;;;;;;;-1.52;100.00;100861.00;10253893;28;20044;-78
2022/12/11 07:12:19;;;;;;;28.13;17.65;;;;;;;-1.55;100.00;100867.53;10283920;28;20193;-76
2022/12/11 07:17:19;;;;;;;30.65;16.25;;;;;;;-1.58;100.00;100875.81;10254461;28;20039;-76
2022/12/11 07:22:20;;;;;;;26.52;17.83;;;;;;;-1.57;100.00;100880.19;10286222;28;20161;-76
2022/12/11 07:27:20;;;;;;;29.38;16.38;;;;;;;-1.55;100.00;100877.78;10283177;28;20117;-77
2022/12/11 07:32:21;;;;;;;31.85;17.67;;;;;;;-1.52;100.00;100885.78;10282881;28;20133;-76
2022/12/11 07:37:21;;;;;;;40.45;17.92;;;;;;;-1.56;100.00;100888.81;10284639;28;20142;-76
2022/12/11 07:42:22;;;;;;;28.67;18.30;;;;;;;-1.54;100.00;100872.78;10284251;28;20039;-76
2022/12/11 07:47:23;;;;;;;28.23;17.20;;;;;;;-1.56;100.00;100884.56;10283140;28;20042;-76
2022/12/11 07:52:24;;;;;;;28.17;15.95;;;;;;;-1.58;100.00;100885.19;10279481;28;20085;-77
2022/12/11 07:57:24;;;;;;;33.65;20.17;;;;;;;-1.60;100.00;100882.47;10281585;28;21405;-75
2022/12/11 08:02:25;;;;;;;26.40;16.08;;;;;;;-1.61;100.00;100884.91;10280843;28;20622;-76
2022/12/11 08:07:25;;;;;;;21.73;14.65;;;;;;;-1.57;100.00;100889.56;10282464;28;20121;-75
2022/12/11 08:12:26;;;;;;;29.92;19.73;;;;;;;-1.61;100.00;100887.47;10263837;28;20043;-76
2022/12/11 08:17:26;;;;;;;25.20;15.00;;;;;;;-1.61;100.00;100885.78;10258242;28;20042;-81
2022/12/11 08:22:27;;;;;;;22.33;13.25;;;;;;;-1.64;100.00;100886.41;10299952;28;20038;-76
2022/12/11 08:27:28;;;;;;;27.17;15.57;;;;;;;-1.63;100.00;100887.31;10318739;28;20038;-75
2022/12/11 08:32:28;;;;;;;24.08;14.73;;;;;;;-1.55;100.00;100881.25;10323343;28;20117;-77
2022/12/11 08:37:29;;;;;;;26.27;12.88;;;;;;;-1.62;100.00;100876.28;10322125;28;20046;-76
2022/12/11 08:42:34;;;;;;;27.27;15.77;;;;;;;-1.65;100.00;100876.91;10301874;28;20125;-77
2022/12/11 08:47:37;;;;;;;24.60;13.77;;;;;;;-1.59;100.00;100880.81;10283945;28;20043;-75
2022/12/11 08:52:38;;;;;;;22.42;12.35;;;;;;;-1.50;100.00;100892.84;10270656;28;20063;-75
2022/12/11 08:57:38;;;;;;;24.85;13.68;;;;;;;-1.54;100.00;100877.91;10242114;28;20427;-76
2022/12/11 09:02:39;;;;;;;28.75;14.43;;;;;;;-1.57;100.00;100877.63;10275105;28;20035;-75
2022/12/11 09:07:39;;;;;;;25.95;15.82;;;;;;;-1.57;100.00;100880.19;10261664;28;20059;-76
2022/12/11 09:12:40;;;;;;;18.45;13.27;;;;;;;-1.59;100.00;100875.69;10266339;28;20122;-75
2022/12/11 09:17:41;;;;;;;25.08;13.20;;;;;;;-1.49;100.00;100873.25;10275108;28;20556;-75
2022/12/11 09:22:41;;;;;;;21.75;13.77;;;;;;;-1.44;100.00;100861.75;10250148;28;20043;-76
2022/12/11 09:27:42;;;;;;;26.83;12.85;;;;;;;-1.33;100.00;100860.19;10259255;28;20126;-75
2022/12/11 09:32:42;;;;;;;20.38;15.25;;;;;;;-1.17;100.00;100851.38;10265577;28;20560;-75
2022/12/11 09:37:43;;;;;;;21.58;14.07;;;;;;;-1.14;100.00;100852.56;10297955;28;20049;-75
2022/12/11 09:42:57;;;;;;;30.67;18.05;;;;;;;-1.09;100.00;100860.69;10289083;28;20133;-76
2022/12/11 09:47:57;;;;;;;18.77;13.05;;;;;;;-0.99;100.00;100857.34;10285060;28;20058;-75
2022/12/11 09:53:10;;;;;;;20.73;13.15;;;;;;;-0.89;100.00;100848.03;10256938;28;20045;-75
2022/12/11 09:58:36;;;;;;;22.13;12.60;;;;;;;-0.87;100.00;100845.63;10264217;28;20492;-75
2022/12/11 10:04:00;;;;;;;24.63;14.65;;;;;;;-0.89;100.00;100848.03;10249507;28;20444;-76
2022/12/11 10:09:24;;;;;;;20.70;13.07;;;;;;;-0.95;100.00;100850.03;10261315;28;20492;-75
2022/12/11 10:14:25;;;;;;;22.00;13.73;;;;;;;-0.90;100.00;100848.81;10283223;28;20132;-75
2022/12/11 10:19:28;;;;;;;22.23;13.38;;;;;;;-0.85;100.00;100850.91;10304029;28;20065;-73
2022/12/11 10:24:50;;;;;;;23.83;14.77;;;;;;;-0.84;100.00;100848.50;10237962;28;20591;-75
2022/12/11 10:30:03;;;;;;;25.25;15.15;;;;;;;-0.72;100.00;100848.72;10289325;28;20046;-75
2022/12/11 10:35:04;;;;;;;22.92;14.73;;;;;;;-0.78;100.00;100850.72;10260846;28;20117;-75
2022/12/11 10:40:08;;;;;;;21.33;13.82;;;;;;;-0.94;100.00;100840.69;10252995;28;20046;-88
2022/12/11 10:45:14;;;;;;;18.98;12.77;;;;;;;-1.05;100.00;100844.81;10284377;28;20473;-92
2022/12/11 10:50:22;;;;;;;23.63;13.82;;;;;;;-0.97;100.00;100840.41;10272073;28;20134;-87
2022/12/11 10:55:44;;;;;;;19.77;13.07;;;;;;;-0.96;100.00;100835.38;10313927;28;20496;-86
2022/12/11 11:00:45;;;;;;;22.98;11.73;;;;;;;-0.71;100.00;100823.94;10284314;28;20065;-90
2022/12/11 11:05:46;;;;;;;20.38;11.90;;;;;;;-0.69;100.00;100823.28;10265327;28;20096;-91
2022/12/11 11:10:53;;;;;;;30.17;14.13;;;;;;;-0.67;100.00;100826.00;10299822;28;20042;-91
2022/12/11 11:15:59;;;;;;;24.55;15.10;;;;;;;-0.65;100.00;100820.22;10288585;28;20051;-94
2022/12/11 11:20:59;;;;;;;21.35;15.10;;;;;;;-0.61;100.00;100806.91;10298943;28;20479;-90
2022/12/11 11:26:00;;;;;;;22.35;13.68;;;;;;;-0.47;100.00;100802.09;10265110;28;20050;-89
2022/12/11 11:31:02;;;;;;;23.23;13.63;;;;;;;-0.54;100.00;100807.44;10234611;28;20055;-88
2022/12/11 11:36:04;;;;;;;23.63;13.50;;;;;;;-0.50;100.00;100789.88;10240274;28;20043;-88
2022/12/11 11:41:16;;;;;;;16.35;10.38;;;;;;;-0.51;100.00;100797.44;10271069;28;20035;-86
2022/12/11 11:46:21;;;;;;;24.13;13.27;;;;;;;-0.41;100.00;100788.91;10244385;28;20403;-88
2022/12/11 11:51:53;;;;;;;22.67;13.25;;;;;;;-0.42;100.00;100781.97;10232213;28;20046;-87
2022/12/11 11:56:55;;;;;;;22.38;12.05;;;;;;;-0.40;100.00;100781.31;10291022;28;20557;-88
2022/12/11 12:01:55;;;;;;;23.20;13.75;;;;;;;-0.34;100.00;100771.59;10282659;28;20138;-83
2022/12/11 12:07:05;;;;;;;19.05;11.68;;;;;;;-0.31;100.00;100777.00;10305688;28;20364;-81
2022/12/11 12:12:33;;;;;;;20.75;11.85;;;;;;;-0.42;100.00;100767.41;10289068;28;20062;-86
2022/12/11 12:18:04;;;;;;;25.35;14.35;;;;;;;-0.53;100.00;100766.47;10292942;28;20045;-83
2022/12/11 12:23:14;;;;;;;19.25;11.45;;;;;;;-0.59;100.00;100773.63;10327066;28;20375;-82
2022/12/11 12:28:41;;;;;;;27.65;15.40;;;;;;;-0.58;100.00;100764.22;10291485;28;20055;-84
2022/12/11 12:34:06;;;;;;;21.65;10.98;;;;;;;-0.58;100.00;100764.22;10301705;28;20043;-81
2022/12/11 12:39:13;;;;;;;25.42;12.82;;;;;;;-0.68;100.00;100763.41;10300526;28;20098;-83
2022/12/11 12:44:17;;;;;;;20.55;13.30;;;;;;;-0.70;100.00;100758.91;10301144;28;20406;-85
2022/12/11 12:49:30;;;;;;;20.88;13.88;;;;;;;-0.69;100.00;100764.16;10297615;28;20372;-84
2022/12/11 12:54:31;;;;;;;20.30;14.65;;;;;;;-0.66;100.00;100761.88;10300212;28;20039;-85
2022/12/11 12:59:31;;;;;;;29.27;17.30;;;;;;;-0.74;100.00;100757.69;10281726;28;20484;-84
2022/12/11 13:04:36;;;;;;;20.55;13.93;;;;;;;-0.76;100.00;100756.66;10311233;28;20121;-84
2022/12/11 13:09:36;;;;;;;18.98;12.25;;;;;;;-0.83;100.00;100762.00;10320816;28;20042;-84
2022/12/11 13:14:37;;;;;;;27.60;14.50;;;;;;;-0.84;100.00;100755.97;10297991;28;20518;-85
2022/12/11 13:19:38;;;;;;;29.15;13.75;;;;;;;-0.85;100.00;100759.31;10281803;28;20082;-84
2022/12/11 13:24:45;;;;;;;19.60;10.80;;;;;;;-0.89;100.00;100764.94;10276625;28;20553;-85
2022/12/11 13:29:49;;;;;;;23.35;16.10;;;;;;;-0.91;100.00;100767.34;10279737;28;20069;-85
2022/12/11 13:34:55;;;;;;;20.80;12.35;;;;;;;-0.82;100.00;100763.81;10317534;28;20141;-82
2022/12/11 13:39:56;;;;;;;23.83;12.60;;;;;;;-0.80;100.00;100762.28;10279113;28;20530;-84
2022/12/11 13:44:56;;;;;;;25.23;14.20;;;;;;;-0.87;100.00;100757.34;10299565;28;20046;-83
2022/12/11 13:50:19;;;;;;;24.17;14.38;;;;;;;-0.92;100.00;100774.94;10254526;28;20512;-83
2022/12/11 13:55:28;;;;;;;24.25;12.85;;;;;;;-1.06;100.00;100772.00;10261744;28;20043;-86
2022/12/11 14:00:31;;;;;;;22.20;13.35;;;;;;;-1.09;100.00;100778.50;10279825;28;20135;-83
2022/12/11 14:05:33;;;;;;;28.27;16.63;;;;;;;-1.16;100.00;100788.97;10261614;28;20058;-81
2022/12/11 14:10:33;;;;;;;28.08;15.20;;;;;;;-1.17;100.00;100790.63;10260685;28;20117;-80
2022/12/11 14:15:34;;;;;;;25.67;14.95;;;;;;;-1.24;100.00;100790.81;10241391;28;20122;-85
2022/12/11 14:20:34;;;;;;;25.73;15.65;;;;;;;-1.22;100.00;100781.59;10238418;28;20038;-88
2022/12/11 14:25:35;;;;;;;35.88;16.95;;;;;;;-1.27;100.00;100787.97;10296864;28;20050;-83
2022/12/11 14:30:35;;;;;;;26.05;15.23;;;;;;;-1.31;100.00;100773.03;10302782;28;20042;-84
2022/12/11 14:35:39;;;;;;;25.42;15.45;;;;;;;-1.36;100.00;100781.22;10312826;28;20042;-84
2022/12/11 14:40:41;;;;;;;24.25;14.45;;;;;;;-1.40;100.00;100786.81;10315431;28;20046;-83
2022/12/11 14:45:43;;;;;;;27.48;16.88;;;;;;;-1.38;100.00;100789.50;10316174;28;20042;-86
2022/12/11 14:50:46;;;;;;;25.80;16.60;;;;;;;-1.39;100.00;100786.06;10297934;28;20518;-85
2022/12/11 14:55:47;;;;;;;26.88;16.52;;;;;;;-1.35;100.00;100785.59;10264856;28;20042;-85
2022/12/11 15:01:02;;;;;;;25.53;16.93;;;;;;;-1.37;100.00;100789.69;10276936;28;20451;-85
2022/12/11 15:06:29;;;;;;;21.98;15.25;;;;;;;-1.43;100.00;100790.75;10263981;28;20054;-84
2022/12/11 15:11:30;;;;;;;30.45;16.25;;;;;;;-1.45;100.00;100789.69;10276468;28;20045;-85
2022/12/11 15:16:32;;;;;;;24.42;14.90;;;;;;;-1.52;100.00;100796.81;10277654;28;20053;-85
2022/12/11 15:21:33;;;;;;;;;;;;;;;-1.57;100.00;100792.03;10284572;28;20485;-85
2022/12/11 15:26:44;;;;;;;22.63;13.68;;;;;;;-1.56;100.00;100793.84;10280116;28;19922;-85
2022/12/11 15:31:45;;;;;;;26.20;16.85;;;;;;;-1.55;100.00;100796.53;10269708;28;20491;-82
2022/12/11 15:36:46;;;;;;;25.80;16.17;;;;;;;-1.55;100.00;100804.22;10281867;28;20054;-86
2022/12/11 15:41:46;;;;;;;25.00;14.18;;;;;;;-1.57;100.00;100808.31;10281249;28;20121;-86
2022/12/11 15:46:47;;;;;;;27.92;17.35;;;;;;;-1.58;100.00;100803.94;10284200;28;20042;-84
2022/12/11 15:51:47;;;;;;;25.00;14.73;;;;;;;-1.57;100.00;100808.31;10319536;28;20050;-83
2022/12/11 15:56:48;;;;;;;23.60;15.80;;;;;;;-1.56;100.00;100805.00;10316412;28;20121;-83
2022/12/11 16:01:49;;;;;;;24.13;16.45;;;;;;;-1.58;100.00;100805.63;10317319;28;20474;-84
2022/12/11 16:06:50;;;;;;;25.48;15.70;;;;;;;-1.59;100.00;100811.50;10316284;28;20660;-84
2022/12/11 16:11:50;;;;;;;27.45;17.85;;;;;;;-1.62;100.00;100819.81;10232596;28;20550;-83
2022/12/11 16:16:51;;;;;;;26.65;15.38;;;;;;;-1.60;100.00;100815.72;10252905;28;20050;-84
2022/12/11 16:21:51;;;;;;;23.55;14.77;;;;;;;-1.60;100.00;100813.16;10284622;28;20031;-83
2022/12/11 16:26:52;;;;;;;22.13;14.48;;;;;;;-1.63;100.00;100820.56;10282109;28;20101;-84
2022/12/11 16:31:52;;;;;;;27.05;16.90;;;;;;;-1.65;100.00;100819.50;10301111;28;20092;-84
2022/12/11 16:36:55;;;;;;;24.52;15.27;;;;;;;-1.61;100.00;100811.34;10281366;28;20380;-85
2022/12/11 16:41:56;;;;;;;22.58;17.33;;;;;;;-1.60;100.00;100802.00;10282338;28;20038;-84
2022/12/11 16:46:56;;;;;;;27.10;18.17;;;;;;;-1.57;100.00;100795.47;10281237;28;20066;-84
2022/12/11 16:51:57;;;;;;;25.15;16.63;;;;;;;-1.56;100.00;100799.84;10280482;28;20045;-84
2022/12/11 16:56:58;;;;;;;23.60;18.33;;;;;;;-1.59;100.00;100799.56;10281953;28;20093;-84
2022/12/11 17:01:58;;;;;;;30.25;17.40;;;;;;;-1.54;100.00;100795.78;10276376;28;20044;-86
2022/12/11 17:06:59;;;;;;;28.38;19.10;;;;;;;-1.53;100.00;100789.88;10242632;28;20480;-85
2022/12/11 17:11:59;;;;;;;32.42;18.48;;;;;;;-1.55;100.00;100791.41;10246643;28;20035;-84
2022/12/11 17:17:00;;;;;;;29.15;17.88;;;;;;;-1.56;100.00;100778.44;10278246;28;20062;-84
2022/12/11 17:22:00;;;;;;;25.40;14.85;;;;;;;-1.60;100.00;100778.91;10278497;28;20137;-83
2022/12/11 17:27:01;;;;;;;23.60;16.13;;;;;;;-1.53;100.00;100778.72;10276997;28;20434;-83
2022/12/11 17:32:02;;;;;;;32.75;20.58;;;;;;;-1.60;100.00;100773.78;10271905;28;20149;-86
2022/12/11 17:37:05;;;;;;;27.60;16.73;;;;;;;-1.63;100.00;100784.63;10277899;28;20098;-84
2022/12/11 17:42:05;;;;;;;25.05;17.98;;;;;;;-1.62;100.00;100799.28;10260751;28;20447;-85
2022/12/11 17:47:06;;;;;;;25.77;17.80;;;;;;;-1.60;100.00;100794.31;10277796;28;20563;-85
2022/12/11 17:52:06;;;;;;;24.00;15.52;;;;;;;-1.56;100.00;100791.28;10277751;28;20070;-85
2022/12/11 17:57:07;;;;;;;30.27;18.38;;;;;;;-1.57;100.00;100789.47;10274857;28;20125;-85
2022/12/11 18:02:08;;;;;;;27.40;16.05;;;;;;;-1.55;100.00;100780.25;10279678;28;20129;-85
2022/12/11 18:07:08;;;;;;;21.15;16.85;;;;;;;-1.51;100.00;100777.19;10276962;28;20035;-85
2022/12/11 18:12:09;;;;;;;25.92;14.35;;;;;;;-1.54;100.00;100780.38;10236816;28;1193536;-86
2022/12/11 18:17:09;;;;;;;25.58;18.10;;;;;;;-1.54;100.00;100789.75;10278787;28;20286;-86
2022/12/11 18:22:10;;;;;;;26.42;16.65;;;;;;;-1.49;100.00;100786.84;10276937;28;20073;-85
2022/12/11 18:27:13;;;;;;;23.48;15.00;;;;;;;-1.51;100.00;100796.06;10276835;28;20129;-85
2022/12/11 18:32:13;;;;;;;23.67;15.15;;;;;;;-1.54;100.00;100792.31;10278361;28;20043;-85
2022/12/11 18:37:14;;;;;;;21.63;13.02;;;;;;;-1.56;100.00;100788.69;10277160;28;20070;-85
2022/12/11 18:42:14;;;;;;;28.83;16.48;;;;;;;-1.58;100.00;100790.22;10275798;28;20039;-86
2022/12/11 18:47:15;;;;;;;21.92;15.40;;;;;;;-1.63;100.00;100782.06;10276278;28;20038;-85
2022/12/11 18:52:15;;;;;;;23.73;14.88;;;;;;;-1.64;100.00;100777.69;10277180;28;20443;-85
2022/12/11 18:57:16;;;;;;;25.25;17.17;;;;;;;-1.72;100.00;100771.84;10260943;28;20046;-85
2022/12/11 19:02:16;;;;;;;23.80;15.48;;;;;;;-1.68;100.00;100788.41;10276166;28;20368;-85
2022/12/11 19:07:17;;;;;;;28.85;16.90;;;;;;;-1.75;100.00;100780.91;10271272;28;20038;-84
2022/12/11 19:12:17;;;;;;;25.27;15.63;;;;;;;-1.77;100.00;100783.34;10275764;28;20073;-83
2022/12/11 19:17:18;;;;;;;20.83;15.40;;;;;;;-1.83;100.00;100786.19;10245296;28;20039;-83
2022/12/11 19:22:19;;;;;;;33.65;17.92;;;;;;;-1.82;100.00;100789.69;10276638;28;20072;-81
2022/12/11 19:27:19;;;;;;;23.88;15.23;;;;;;;-1.89;100.00;100795.00;10235640;28;20054;-84
2022/12/11 19:32:20;;;;;;;29.95;17.60;;;;;;;-2.07;100.00;100785.66;10256083;28;20146;-84
2022/12/11 19:37:20;;;;;;;31.42;17.17;;;;;;;-2.23;100.00;100778.16;10276110;28;20487;-84
2022/12/11 19:42:21;;;;;;;32.28;18.05;;;;;;;-2.37;100.00;100779.34;10275858;28;20047;-84
2022/12/11 19:47:21;;;;;;;31.77;20.10;;;;;;;-2.43;100.00;100776.19;10275152;28;20138;-84
2022/12/11 19:52:22;;;;;;;30.88;18.73;;;;;;;-2.49;100.00;100778.16;10275723;28;20444;-84
2022/12/11 19:57:22;;;;;;;28.90;18.27;;;;;;;-2.54;100.00;100784.47;10275540;28;20089;-84
2022/12/11 20:02:23;;;;;;;36.63;23.85;;;;;;;-2.56;100.00;100783.44;10273985;28;20055;-84
2022/12/11 20:07:23;;;;;;;32.28;20.75;;;;;;;-2.54;100.00;100787.97;10264986;28;20497;-83
2022/12/11 20:12:24;;;;;;;31.00;20.65;;;;;;;-2.46;100.00;100791.28;10279293;28;20198;-84
2022/12/11 20:17:25;;;;;;;32.08;20.63;;;;;;;-2.46;100.00;100796.41;10282105;28;20109;-84
2022/12/11 20:22:25;;;;;;;31.67;18.98;;;;;;;-2.54;100.00;100802.44;10266651;28;20483;-84
2022/12/11 20:27:27;;;;;;;33.42;17.70;;;;;;;-2.57;100.00;100804.69;10268522;28;20062;-85
2022/12/11 20:32:27;;;;;;;31.02;19.45;;;;;;;-2.57;100.00;100807.25;10258521;28;20186;-84
2022/12/11 20:37:28;;;;;;;37.75;21.58;;;;;;;-2.58;100.00;100803.78;10281874;28;20117;-83
2022/12/11 20:42:28;;;;;;;41.17;22.40;;;;;;;-2.71;100.00;100798.22;10281142;28;20055;-84
2022/12/11 20:47:29;;;;;;;39.17;24.20;;;;;;;-2.76;100.00;100802.84;10268711;28;20079;-83
2022/12/11 20:52:30;;;;;;;44.20;23.45;;;;;;;-2.72;100.00;100804.09;10265962;28;20054;-87
2022/12/11 20:57:30;;;;;;;42.80;24.08;;;;;;;-2.64;100.00;100809.97;10282427;28;20043;-86
2022/12/11 21:02:31;;;;;;;36.08;23.25;;;;;;;-2.71;100.00;100805.91;10281043;28;20118;-85
2022/12/11 21:07:31;;;;;;;35.97;23.25;;;;;;;-2.87;100.00;100804.38;10255026;28;20047;-86
2022/12/11 21:12:32;;;;;;;33.30;22.85;;;;;;;-3.08;100.00;100808.22;10241055;28;20134;-79
2022/12/11 21:17:33;;;;;;;33.67;20.48;;;;;;;-3.32;100.00;100819.44;10262610;28;20061;-83
2022/12/11 21:22:34;;;;;;;37.85;24.83;;;;;;;-3.50;100.00;100816.81;10280624;28;20507;-82
2022/12/11 21:27:34;;;;;;;39.47;22.70;;;;;;;-3.60;100.00;100822.63;10278296;28;20130;-82
2022/12/11 21:32:35;;;;;;;44.13;26.80;;;;;;;-3.49;100.00;100828.88;10280602;28;20125;-82
2022/12/11 21:37:36;;;;;;;40.63;26.37;;;;;;;-3.33;100.00;100836.44;10278300;28;20047;-82
2022/12/11 21:42:36;;;;;;;45.08;27.42;;;;;;;-3.18;100.00;100832.00;10279144;28;20475;-81
2022/12/11 21:47:37;;;;;;;42.08;29.35;;;;;;;-3.06;100.00;100831.44;10279491;28;20126;-82
2022/12/11 21:52:37;;;;;;;42.72;27.38;;;;;;;-2.94;100.00;100827.56;10279805;28;20059;-81
2022/12/11 21:57:38;;;;;;;40.83;26.65;;;;;;;-2.84;100.00;100831.94;10262416;28;20049;-82
2022/12/11 22:02:38;;;;;;;49.30;29.17;;;;;;;-2.73;100.00;100836.47;10279935;28;20135;-82
2022/12/11 22:07:39;;;;;;;38.03;25.63;;;;;;;-2.71;100.00;100834.97;10279483;28;20050;-83
2022/12/11 22:12:39;;;;;;;24.90;16.98;;;;;;;-2.66;100.00;100845.69;10228156;28;20190;-82
2022/12/11 22:17:40;;;;;;;40.35;25.88;;;;;;;-2.57;100.00;100850.81;10245686;28;20035;-81
2022/12/11 22:22:40;;;;;;;43.75;27.52;;;;;;;-2.56;100.00;100850.06;10278002;28;20151;-82
2022/12/11 22:27:41;;;;;;;43.97;30.33;;;;;;;-2.56;100.00;100850.97;10277355;28;20133;-82
2022/12/11 22:32:42;;;;;;;35.65;23.98;;;;;;;-2.62;100.00;100844.31;10278622;28;20138;-82
2022/12/11 22:37:43;;;;;;;46.90;27.77;;;;;;;-2.62;100.00;100845.25;10277146;28;20031;-82